M I D A S
Marine Information and Data Acquisition System
Tripno 1744 of the Zeeleeuw from 2009-08-03 06:53:44 to 2009-08-03 07:55:47
Back to CruiseResearch ActivitiesStationsMapUnderway DataData graphs

EquipmentUnitsComment
TimeDGPSUTC
LatitudeDGPSDM.mWGS84
LongitudeDGPSDM.mWGS84
TemperatureSBE03/SBE38deg celciusITS90
ConductivitySBE21S/mITS90
SalinitySBE21 Practical Salinity Units
ChlorophylAChelsea fluorimeterg/lCalibrated in Aceton
Missing or incorrect values are displayed as -999
Sea surface data collected by the RV Zeeleeuw from 2009-08-03 06:53:03 to 2009-08-03 08:01:03
Time Latitude Longitude Temperature Conductivity Salinity ChlorophylA
2009-08-03 06:53:13 51°15.038 2°51.848 21.5413 2.226692 15.140962 6.556251
2009-08-03 06:53:18 51°15.041 2°51.822 21.5614 2.194043 14.898844 6.556251
2009-08-03 06:53:23 51°15.044 2°51.796 21.5592 2.253661 15.342337 6.556251
2009-08-03 06:53:28 51°15.047 2°51.771 21.5477 2.269987 15.464161 6.556251
2009-08-03 06:53:34 51°15.05 2°51.739 21.5556 2.269987 15.464161 6.556251
2009-08-03 06:53:38 51°15.053 2°51.719 21.5566 2.267197 15.443383 6.556251
2009-08-03 06:53:43 51°15.056 2°51.693 21.5633 2.27381 15.492924 6.556251
2009-08-03 06:53:48 51°15.059 2°51.667 21.5576 2.253557 15.342134 6.556251
2009-08-03 06:53:53 51°15.062 2°51.642 21.5659 2.238678 15.231453 6.556251
2009-08-03 06:53:58 51°15.065 2°51.616 21.5606 2.221423 15.103763 6.556251
2009-08-03 06:54:03 51°15.068 2°51.59 21.5675 2.221423 15.103763 6.556251
2009-08-03 06:54:08 51°15.071 2°51.564 21.5659 2.273811 15.493782 6.556251
2009-08-03 06:54:13 51°15.074 2°51.538 21.5839 2.232789 15.188788 6.556251
2009-08-03 06:54:18 51°15.078 2°51.512 21.5446 2.19363 14.897977 6.556251
2009-08-03 06:54:23 51°15.081 2°51.487 21.5732 2.233615 15.195213 6.556251
2009-08-03 06:54:28 51°15.084 2°51.461 21.5736 2.233615 15.195213 6.556251
2009-08-03 06:54:33 51°15.088 2°51.436 21.5649 2.250768 15.323071 6.556251
2009-08-03 06:54:38 51°15.092 2°51.41 21.5655 2.117491 14.33504 6.556251
2009-08-03 06:54:43 51°15.095 2°51.385 21.563 2.246118 15.288757 6.556251
2009-08-03 06:54:48 51°15.099 2°51.359 21.5694 2.277841 15.525812 6.556251
2009-08-03 06:54:53 51°15.103 2°51.334 21.5722 2.212641 15.041306 6.556251
2009-08-03 06:54:59 51°15.108 2°51.303 21.5711 2.229172 15.164145 6.556251
2009-08-03 06:55:03 51°15.112 2°51.283 21.5698 2.229172 15.164145 6.556251
2009-08-03 06:55:08 51°15.116 2°51.258 21.5768 2.250664 15.324282 6.556251
2009-08-03 06:55:13 51°15.12 2°51.233 21.5667 2.244361 15.277381 6.556251
2009-08-03 06:55:18 51°15.125 2°51.208 21.5633 2.190737 14.879263 6.556251
2009-08-03 06:55:23 51°15.13 2°51.183 21.5692 2.238885 15.237488 6.556251
2009-08-03 06:55:28 51°15.135 2°51.158 21.5878 2.246221 15.292348 6.556251
2009-08-03 06:55:33 51°15.14 2°51.133 21.5742 2.246221 15.292348 6.556251
2009-08-03 06:55:38 51°15.145 2°51.108 21.5776 2.254177 15.35213 6.556251
2009-08-03 06:55:43 51°15.15 2°51.083 21.5638 2.259241 15.389827 6.556251
2009-08-03 06:55:48 51°15.155 2°51.058 21.5745 2.247978 15.306549 6.556251
2009-08-03 06:55:53 51°15.16 2°51.033 21.577 2.236612 15.222267 6.556251
2009-08-03 06:55:58 51°15.165 2°51.008 21.5707 2.236612 15.222267 6.556251
2009-08-03 06:56:03 51°15.169 2°50.983 21.5765 2.226692 15.148508 6.556251
2009-08-03 06:56:08 51°15.174 2°50.958 21.5785 2.219357 15.093981 6.556251
2009-08-03 06:56:13 51°15.179 2°50.933 21.5786 2.232995 15.195932 6.556251
2009-08-03 06:56:18 51°15.184 2°50.907 21.5743 2.239815 15.246375 6.556251
2009-08-03 06:56:23 51°15.189 2°50.882 21.5799 2.271434 15.482077 6.556251
2009-08-03 06:56:28 51°15.193 2°50.857 21.5812 2.271434 15.482077 6.556251
2009-08-03 06:56:33 51°15.198 2°50.832 21.5915 2.262237 15.414134 6.521427
2009-08-03 06:56:38 51°15.203 2°50.807 21.5909 2.241985 15.263646 6.556251
2009-08-03 06:56:43 51°15.208 2°50.782 21.5808 2.253971 15.352859 6.556251
2009-08-03 06:56:48 51°15.213 2°50.757 21.5789 2.264511 15.431637 6.556251
2009-08-03 06:56:53 51°15.217 2°50.732 21.5824 2.180922 14.810563 6.556251
2009-08-03 06:56:58 51°15.222 2°50.707 21.59 2.239712 15.247577 6.521427
2009-08-03 06:57:03 51°15.227 2°50.681 21.5876 2.239712 15.247577 6.521427
2009-08-03 06:57:08 51°15.231 2°50.656 21.5921 2.268541 15.462517 6.556251
2009-08-03 06:57:13 51°15.236 2°50.631 21.5851 2.224213 15.132308 6.556251
2009-08-03 06:57:18 51°15.241 2°50.606 21.5948 2.199726 14.95038 6.556251
2009-08-03 06:57:23 51°15.246 2°50.581 21.5964 2.17586 14.773291 6.556251
2009-08-03 06:57:28 51°15.25 2°50.556 21.5929 2.256244 15.371204 6.521427
2009-08-03 06:57:34 51°15.256 2°50.526 21.5938 2.256244 15.371204 6.521427
2009-08-03 06:57:38 51°15.26 2°50.505 21.6042 2.233305 15.201044 6.556251
2009-08-03 06:57:43 51°15.264 2°50.48 21.6027 2.224729 15.137547 6.556251
2009-08-03 06:57:48 51°15.269 2°50.455 21.598 2.201792 14.967382 6.556251
2009-08-03 06:57:53 51°15.273 2°50.429 21.6024 2.178752 14.796383 6.556251
2009-08-03 06:57:58 51°15.277 2°50.404 21.5979 2.178752 14.796383 6.556251
2009-08-03 06:58:03 51°15.282 2°50.379 21.58 2.236508 15.225715 6.521427
2009-08-03 06:58:08 51°15.286 2°50.353 21.5829 2.222456 15.121484 6.521427
2009-08-03 06:58:13 51°15.29 2°50.328 21.5846 2.214191 15.060322 6.521427
2009-08-03 06:58:18 51°15.295 2°50.303 21.5986 2.244775 15.28864 6.556251
2009-08-03 06:58:23 51°15.3 2°50.278 21.5834 2.234649 15.214126 6.521427
2009-08-03 06:58:28 51°15.304 2°50.252 21.6025 2.234649 15.214126 6.521427
2009-08-03 06:58:34 51°15.309 2°50.222 21.5851 2.249734 15.327263 6.556251
2009-08-03 06:58:38 51°15.313 2°50.202 21.5952 2.266681 15.452653 6.556251
2009-08-03 06:58:43 51°15.318 2°50.177 21.6028 2.219047 15.097809 6.556251
2009-08-03 06:58:48 51°15.323 2°50.152 21.6128 2.260067 15.402522 6.521427
2009-08-03 06:58:53 51°15.328 2°50.127 21.6001 2.224833 15.140272 6.521427
2009-08-03 06:58:58 51°15.333 2°50.102 21.5867 2.210574 15.034838 6.556251
2009-08-03 06:59:03 51°15.338 2°50.077 21.5685 2.210574 15.034838 6.556251
2009-08-03 06:59:07 51°15.342 2°50.057 21.6008 2.184848 14.844619 6.521427
2009-08-03 06:59:13 51°15.348 2°50.027 21.6135 2.268954 15.471311 6.521427
2009-08-03 06:59:18 51°15.353 2°50.002 21.6096 2.159227 14.655954 6.521427
2009-08-03 06:59:23 51°15.358 2°49.977 21.6057 2.266577 15.454738 6.521427
2009-08-03 06:59:27 51°15.362 2°49.957 21.6171 2.266577 15.454738 6.521427
2009-08-03 06:59:33 51°15.368 2°49.927 21.5942 2.236095 15.227702 6.556251
2009-08-03 06:59:38 51°15.372 2°49.902 21.5909 2.224316 15.140345 6.521427
2009-08-03 06:59:43 51°15.377 2°49.878 21.6069 2.253454 15.357519 6.521427
2009-08-03 06:59:47 51°15.381 2°49.857 21.6089 2.265131 15.444526 6.521427
2009-08-03 06:59:53 51°15.387 2°49.828 21.6058 2.228346 15.170881 6.556251
2009-08-03 06:59:58 51°15.392 2°49.803 21.5964 2.228346 15.170881 6.556251
2009-08-03 07:00:03 51°15.397 2°49.778 21.6088 2.237542 15.239313 6.556251
2009-08-03 07:00:08 51°15.402 2°49.753 21.6138 2.251904 15.346257 6.521427
2009-08-03 07:00:14 51°15.408 2°49.723 21.6158 2.243225 15.282184 6.521427
2009-08-03 07:00:18 51°15.411 2°49.703 21.5997 2.226589 15.158373 6.556251
2009-08-03 07:00:23 51°15.416 2°49.678 21.6008 2.215121 15.073635 6.556251
2009-08-03 07:00:28 51°15.421 2°49.653 21.6175 2.273604 15.50913 6.521427
2009-08-03 07:00:34 51°15.427 2°49.624 21.6049 2.273604 15.50913 6.521427
2009-08-03 07:00:38 51°15.431 2°49.604 21.6114 2.226073 15.15509 6.521427
2009-08-03 07:00:43 51°15.435 2°49.579 21.61 2.245395 15.299189 6.521427
2009-08-03 07:00:48 51°15.44 2°49.554 21.5957 2.255004 15.371053 6.521427
2009-08-03 07:00:54 51°15.446 2°49.524 21.6231 2.200759 14.967724 6.521427
2009-08-03 07:00:58 51°15.45 2°49.504 21.6186 2.241262 15.269259 6.556251
2009-08-03 07:01:03 51°15.455 2°49.479 21.6159 2.241262 15.269259 6.556251
2009-08-03 07:01:08 51°15.46 2°49.455 21.6214 2.277738 15.541969 6.521427
2009-08-03 07:01:13 51°15.465 2°49.43 21.6159 2.222663 15.131683 6.521427
2009-08-03 07:01:18 51°15.469 2°49.405 21.6109 2.241158 15.269619 6.521427
2009-08-03 07:01:23 51°15.474 2°49.38 21.6162 2.265234 15.449292 6.521427
2009-08-03 07:01:28 51°15.479 2°49.356 21.618 2.265234 15.449292 6.521427
2009-08-03 07:01:34 51°15.485 2°49.326 21.623 2.255004 15.373042 6.521427
2009-08-03 07:01:39 51°15.49 2°49.301 21.6165 2.231032 15.19536 6.521427
2009-08-03 07:01:43 51°15.494 2°49.281 21.6039 2.188981 14.883264 6.521427
2009-08-03 07:01:48 51°15.499 2°49.257 21.5985 2.272984 15.509092 6.521427
2009-08-03 07:01:53 51°15.504 2°49.232 21.6308 2.233306 15.212843 6.521427
2009-08-03 07:01:58 51°15.509 2°49.207 21.6233 2.233306 15.212843 6.521427
2009-08-03 07:02:03 51°15.513 2°49.182 21.6264 2.268541 15.475664 6.521427
2009-08-03 07:02:08 51°15.518 2°49.158 21.6251 2.203652 14.99199 6.521427
2009-08-03 07:02:13 51°15.523 2°49.133 21.6267 2.255004 15.374178 6.521427
2009-08-03 07:02:18 51°15.528 2°49.109 21.6204 2.221423 15.124416 6.521427
2009-08-03 07:02:23 51°15.532 2°49.084 21.6306 2.264821 15.448209 6.521427
2009-08-03 07:02:28 51°15.537 2°49.059 21.6274 2.248081 15.324011 6.521427
2009-08-03 07:02:33 51°15.541 2°49.034 21.6311 2.248081 15.324011 6.521427
2009-08-03 07:02:38 51°15.546 2°49.01 21.6314 2.248495 15.327657 6.521427
2009-08-03 07:02:43 51°15.551 2°48.985 21.6417 2.235682 15.232506 6.521427
2009-08-03 07:02:49 51°15.557 2°48.956 21.6206 2.207785 15.025488 6.521427
2009-08-03 07:02:53 51°15.56 2°48.936 21.631 2.268438 15.477468 6.521427
2009-08-03 07:02:58 51°15.565 2°48.912 21.6285 2.266164 15.460798 6.521427
2009-08-03 07:03:03 51°15.57 2°48.887 21.6284 2.266164 15.460798 6.521427
2009-08-03 07:03:08 51°15.574 2°48.863 21.6175 2.251388 15.350066 6.521427
2009-08-03 07:03:13 51°15.579 2°48.838 21.6411 2.239609 15.262591 6.521427
2009-08-03 07:03:18 51°15.584 2°48.813 21.6342 2.270194 15.491431 6.521427
2009-08-03 07:03:23 51°15.588 2°48.789 21.6403 2.204375 15.001247 6.521427
2009-08-03 07:03:28 51°15.593 2°48.765 21.6209 2.207062 15.022054 6.521427
2009-08-03 07:03:33 51°15.597 2°48.74 21.6348 2.207062 15.022054 6.521427
2009-08-03 07:03:38 51°15.602 2°48.715 21.6311 2.215431 15.08458 6.521427
2009-08-03 07:03:43 51°15.607 2°48.691 21.6363 2.273294 15.515994 6.521427
2009-08-03 07:03:48 51°15.611 2°48.666 21.6458 2.207475 15.025961 6.521427
2009-08-03 07:03:53 51°15.616 2°48.642 21.6196 2.250148 15.343663 6.521427
2009-08-03 07:03:58 51°15.621 2°48.617 21.6357 2.248908 15.334422 6.521427
2009-08-03 07:04:03 51°15.625 2°48.592 21.6354 2.248908 15.334422 6.521427
2009-08-03 07:04:07 51°15.629 2°48.573 21.6446 2.237335 15.247917 6.521427
2009-08-03 07:04:13 51°15.635 2°48.543 21.64 2.262754 15.437937 6.521427
2009-08-03 07:04:18 51°15.639 2°48.519 21.6338 2.263994 15.447757 6.521427
2009-08-03 07:04:23 51°15.644 2°48.494 21.6486 2.240022 15.269622 6.521427
2009-08-03 07:04:27 51°15.648 2°48.474 21.6259 2.231653 15.207845 6.521427
2009-08-03 07:04:33 51°15.653 2°48.445 21.6499 2.231653 15.207845 6.521427
2009-08-03 07:04:38 51°15.658 2°48.42 21.6498 2.216567 15.095827 6.521427
2009-08-03 07:04:43 51°15.663 2°48.395 21.6527 2.259138 15.413531 6.521427
2009-08-03 07:04:48 51°15.667 2°48.371 21.6361 2.22256 15.140708 6.521427
2009-08-03 07:04:54 51°15.673 2°48.341 21.6262 2.215637 15.089186 6.521427
2009-08-03 07:04:58 51°15.676 2°48.321 21.6372 2.266681 15.4698 6.521427
2009-08-03 07:05:03 51°15.681 2°48.296 21.6667 2.266681 15.4698 6.521427
2009-08-03 07:05:08 51°15.686 2°48.272 21.6391 2.2207 15.127424 6.521427
2009-08-03 07:05:14 51°15.691 2°48.242 21.6506 2.256968 15.397633 6.521427
2009-08-03 07:05:18 51°15.695 2°48.222 21.6332 2.242295 15.288254 6.521427
2009-08-03 07:05:23 51°15.699 2°48.197 21.6531 2.255728 15.388387 6.521427
2009-08-03 07:05:28 51°15.704 2°48.173 21.6414 2.255728 15.388387 6.521427
2009-08-03 07:05:34 51°15.71 2°48.143 21.6423 2.228243 15.183859 6.521427
2009-08-03 07:05:38 51°15.714 2°48.123 21.6465 2.22225 15.13952 6.521427
2009-08-03 07:05:43 51°15.718 2°48.098 21.6432 2.252008 15.361219 6.521427
2009-08-03 07:05:48 51°15.723 2°48.073 21.6542 2.268128 15.48174 6.521427
2009-08-03 07:05:53 51°15.728 2°48.048 21.65 2.194044 14.930802 6.521427
2009-08-03 07:05:58 51°15.733 2°48.023 21.633 2.165529 14.720073 6.521427
2009-08-03 07:06:03 51°15.737 2°47.998 21.6484 2.165529 14.720073 6.521427
2009-08-03 07:06:08 51°15.742 2°47.973 21.6578 2.233512 15.226202 6.521427
2009-08-03 07:06:13 51°15.746 2°47.948 21.6384 2.255005 15.386124 6.521427
2009-08-03 07:06:18 51°15.751 2°47.923 21.6516 2.156128 14.650031 6.521427
2009-08-03 07:06:23 51°15.756 2°47.898 21.6532 2.241572 15.284844 6.521427
2009-08-03 07:06:28 51°15.76 2°47.873 21.6588 2.232893 15.220175 6.521427
2009-08-03 07:06:34 51°15.766 2°47.843 21.6589 2.232893 15.220175 6.521427
2009-08-03 07:06:38 51°15.769 2°47.823 21.6459 2.251078 15.355706 6.521427
2009-08-03 07:06:43 51°15.774 2°47.798 21.6503 2.174724 14.787525 6.521427
2009-08-03 07:06:48 51°15.778 2°47.773 21.6648 2.238679 15.264131 6.521427
2009-08-03 07:06:53 51°15.783 2°47.748 21.6443 2.201896 14.991682 6.521427
2009-08-03 07:06:58 51°15.788 2°47.723 21.6607 2.213881 15.081416 6.521427
2009-08-03 07:07:03 51°15.793 2°47.698 21.6577 2.213881 15.081416 6.521427
2009-08-03 07:07:08 51°15.798 2°47.673 21.6566 2.259035 15.41875 6.521427
2009-08-03 07:07:13 51°15.802 2°47.648 21.6555 2.265028 15.463186 6.521427
2009-08-03 07:07:18 51°15.807 2°47.623 21.6674 2.173794 14.783901 6.521427
2009-08-03 07:07:23 51°15.812 2°47.598 21.6551 2.213261 15.077081 6.521427
2009-08-03 07:07:28 51°15.816 2°47.573 21.6638 2.262031 15.440538 6.521427
2009-08-03 07:07:34 51°15.822 2°47.543 21.6699 2.262031 15.440538 6.521427
2009-08-03 07:07:38 51°15.826 2°47.523 21.6687 2.267198 15.479668 6.521427
2009-08-03 07:07:43 51°15.831 2°47.498 21.7737 2.241779 15.29091 6.521427
2009-08-03 07:07:48 51°15.835 2°47.473 20.2535 2.297682 15.72776 13.451414
2009-08-03 07:07:54 51°15.84 2°47.443 19.86 2.298096 15.728813 14.322015
2009-08-03 07:07:58 51°15.844 2°47.422 19.645 3.976377 28.925183 14.217543
2009-08-03 07:08:03 51°15.848 2°47.397 19.4031 3.976377 28.925183 14.217543
2009-08-03 07:08:08 51°15.852 2°47.372 19.2391 4.488121 32.476116 10.630666
2009-08-03 07:08:13 51°15.857 2°47.347 19.1663 4.542204 32.376936 8.645695
2009-08-03 07:08:19 51°15.863 2°47.317 19.109 4.670139 33.252187 8.08851
2009-08-03 07:08:23 51°15.867 2°47.297 19.0475 4.693407 33.607788 7.809917
2009-08-03 07:08:28 51°15.871 2°47.272 18.9844 4.696528 33.870009 7.392029
2009-08-03 07:08:33 51°15.876 2°47.247 18.9547 4.696528 33.870009 7.392029
2009-08-03 07:08:38 51°15.881 2°47.222 18.9303 4.690613 34.083435 7.008964
2009-08-03 07:08:43 51°15.886 2°47.197 18.8928 4.660393 34.06463 6.80002
2009-08-03 07:08:48 51°15.891 2°47.173 18.8808 4.662578 34.265298 6.6259
2009-08-03 07:08:53 51°15.895 2°47.148 18.8731 4.674108 34.471455 6.591076
2009-08-03 07:08:58 51°15.9 2°47.123 18.8519 4.674108 34.471455 6.591076
2009-08-03 07:09:03 51°15.905 2°47.098 18.8654 4.649807 34.359977 6.521427
2009-08-03 07:09:07 51°15.908 2°47.078 18.825 4.637346 34.321194 6.486603
2009-08-03 07:09:13 51°15.914 2°47.048 18.8093 4.626338 34.289887 6.416955
2009-08-03 07:09:18 51°15.919 2°47.023 18.822 4.648564 34.515556 6.416955
2009-08-03 07:09:23 51°15.923 2°46.998 18.804 4.644099 34.514226 6.382131
2009-08-03 07:09:27 51°15.927 2°46.979 18.82 4.637452 34.481019 6.382131
2009-08-03 07:09:33 51°15.933 2°46.949 18.8023 4.637452 34.481019 6.382131
2009-08-03 07:09:38 51°15.937 2°46.924 18.7998 4.640776 34.530272 6.382131
2009-08-03 07:09:43 51°15.942 2°46.899 18.7924 4.635064 34.497656 6.347307
2009-08-03 07:09:48 51°15.947 2°46.875 18.783 4.631222 34.486503 6.382131
2009-08-03 07:09:54 51°15.953 2°46.845 18.7845 4.600483 34.241123 6.416955
2009-08-03 07:09:58 51°15.957 2°46.825 18.7902 4.620318 34.416382 6.416955
2009-08-03 07:10:03 51°15.961 2°46.8 18.7847 4.620318 34.416382 6.416955
2009-08-03 07:10:08 51°15.966 2°46.775 18.7829 4.614918 34.377173 6.451779
2009-08-03 07:10:13 51°15.97 2°46.751 18.775 4.623019 34.451338 6.486603
2009-08-03 07:10:18 51°15.975 2°46.726 18.7706 4.620422 34.436189 6.556251
2009-08-03 07:10:23 51°15.98 2°46.701 18.7711 4.628627 34.510622 6.556251
2009-08-03 07:10:28 51°15.985 2°46.677 18.7573 4.628627 34.516518 6.591076
2009-08-03 07:10:33 51°15.99 2°46.652 18.7581 4.628627 34.516518 6.591076
2009-08-03 07:10:38 51°15.995 2°46.627 18.7583 4.625096 34.490282 6.660724
2009-08-03 07:10:43 51°16 2°46.603 18.7516 4.595603 34.24717 6.695548
2009-08-03 07:10:48 51°16.005 2°46.578 18.75 4.610869 34.377929 6.765196
2009-08-03 07:10:53 51°16.01 2°46.554 18.7509 4.596434 34.262564 6.80002
2009-08-03 07:10:58 51°16.014 2°46.529 18.7539 4.596434 34.262564 6.80002
2009-08-03 07:11:03 51°16.019 2°46.504 18.7478 4.609 34.372103 6.869668
2009-08-03 07:11:08 51°16.024 2°46.479 18.756 4.627796 34.533835 6.939316
2009-08-03 07:11:13 51°16.029 2°46.455 18.7508 4.616581 34.444627 6.97414
2009-08-03 07:11:18 51°16.033 2°46.43 18.7493 4.62842 34.545611 7.043788
2009-08-03 07:11:23 51°16.038 2°46.406 18.7481 4.624266 34.514142 7.113436
2009-08-03 07:11:28 51°16.043 2°46.381 18.7489 4.629874 34.56303 7.14826
2009-08-03 07:11:34 51°16.048 2°46.352 18.7429 4.629874 34.56303 7.14826
2009-08-03 07:11:38 51°16.052 2°46.332 18.7411 4.614296 34.434031 7.217908
2009-08-03 07:11:43 51°16.056 2°46.308 18.747 4.626758 34.538275 7.252733
2009-08-03 07:11:48 51°16.061 2°46.283 18.7458 4.626654 34.537406 7.357205
2009-08-03 07:11:53 51°16.066 2°46.259 18.7386 4.624577 34.521998 7.392029
2009-08-03 07:11:58 51°16.071 2°46.235 18.7368 4.618762 34.474656 7.461677
2009-08-03 07:12:03 51°16.077 2°46.211 18.7305 4.618762 34.474656 7.461677
2009-08-03 07:12:08 51°16.083 2°46.188 18.7308 4.622812 34.510507 7.496501
2009-08-03 07:12:13 51°16.089 2°46.165 18.7273 4.618346 34.475114 7.566149
2009-08-03 07:12:18 51°16.095 2°46.142 18.7297 4.626343 34.543337 7.635797
2009-08-03 07:12:23 51°16.101 2°46.119 18.7289 4.617723 34.471867 7.670621
2009-08-03 07:12:28 51°16.108 2°46.096 18.7253 4.617723 34.471867 7.670621
2009-08-03 07:12:33 51°16.115 2°46.073 18.7205 4.616789 34.466669 7.775093
2009-08-03 07:12:38 51°16.122 2°46.05 18.7221 4.614089 34.44801 7.809917
2009-08-03 07:12:43 51°16.128 2°46.028 18.7268 4.619177 34.493214 7.879566
2009-08-03 07:12:48 51°16.135 2°46.005 18.7226 4.620735 34.507565 7.984038
2009-08-03 07:12:53 51°16.142 2°45.982 18.7273 4.620424 34.505613 8.018862
2009-08-03 07:12:59 51°16.15 2°45.955 18.7202 4.622501 34.524312 8.053686
2009-08-03 07:13:03 51°16.156 2°45.937 18.7182 4.622501 34.524312 8.053686
2009-08-03 07:13:08 51°16.163 2°45.915 18.7183 4.622085 34.523462 8.158158
2009-08-03 07:13:13 51°16.17 2°45.892 18.7211 4.604327 34.376158 8.227806
2009-08-03 07:13:18 51°16.177 2°45.87 18.7172 4.608793 34.41352 8.297454
2009-08-03 07:13:23 51°16.184 2°45.848 18.7122 4.61087 34.4309 8.367102
2009-08-03 07:13:28 51°16.192 2°45.825 18.714 4.62302 34.533915 8.471574
2009-08-03 07:13:33 51°16.199 2°45.803 18.7139 4.62302 34.533915 8.471574
2009-08-03 07:13:38 51°16.206 2°45.781 18.7134 4.622812 34.53349 8.506398
2009-08-03 07:13:43 51°16.213 2°45.759 18.7162 4.622085 34.528718 8.610871
2009-08-03 07:13:48 51°16.221 2°45.736 18.7185 4.62707 34.571774 8.715343
2009-08-03 07:13:53 51°16.228 2°45.714 18.7152 4.626447 34.567872 8.784991
2009-08-03 07:13:58 51°16.235 2°45.691 18.7131 4.626447 34.567872 8.784991
2009-08-03 07:14:03 51°16.242 2°45.669 18.71 4.621982 34.533105 8.819815
2009-08-03 07:14:07 51°16.248 2°45.651 18.7167 4.624682 34.555718 8.924287
2009-08-03 07:14:13 51°16.256 2°45.624 18.7106 4.621566 34.530284 9.028759
2009-08-03 07:14:18 51°16.263 2°45.602 18.7077 4.618347 34.503327 9.098407
2009-08-03 07:14:23 51°16.27 2°45.579 18.7102 4.61492 34.474634 9.20288
2009-08-03 07:14:27 51°16.276 2°45.561 18.709 4.61492 34.474634 9.20288
2009-08-03 07:14:33 51°16.284 2°45.535 18.7115 4.622086 34.53529 9.307352
2009-08-03 07:14:38 51°16.291 2°45.512 18.7117 4.62302 34.54509 9.377
2009-08-03 07:14:43 51°16.298 2°45.49 18.7114 4.617932 34.503132 9.481472
2009-08-03 07:14:47 51°16.303 2°45.471 18.7121 4.624266 34.556843 9.55112
2009-08-03 07:14:53 51°16.311 2°45.444 18.7109 4.621566 34.535543 9.655592
2009-08-03 07:14:58 51°16.318 2°45.422 18.7123 4.611701 34.452929 9.760064
2009-08-03 07:15:03 51°16.325 2°45.399 18.7143 4.611701 34.452929 9.760064
2009-08-03 07:15:08 51°16.331 2°45.376 18.7104 4.624786 34.562508 9.829713
2009-08-03 07:15:13 51°16.338 2°45.353 18.716 4.625824 34.571207 9.934185
2009-08-03 07:15:18 51°16.345 2°45.331 18.7159 4.618866 34.512929 10.038657
2009-08-03 07:15:23 51°16.351 2°45.308 18.7143 4.621359 34.533146 10.108305
2009-08-03 07:15:28 51°16.358 2°45.285 18.7185 4.623851 34.554679 10.212777
2009-08-03 07:15:33 51°16.364 2°45.262 18.7158 4.623851 34.554679 10.212777
2009-08-03 07:15:38 51°16.371 2°45.239 18.7173 4.62489 34.563378 10.282425
2009-08-03 07:15:43 51°16.377 2°45.216 18.7185 4.626136 34.573817 10.386897
2009-08-03 07:15:48 51°16.383 2°45.193 18.721 4.615128 34.48031 10.49137
2009-08-03 07:15:53 51°16.389 2°45.17 18.7254 4.624786 34.560534 10.561018
2009-08-03 07:15:58 51°16.395 2°45.147 18.7245 4.619905 34.519655 10.66549
2009-08-03 07:16:03 51°16.402 2°45.125 18.7276 4.619905 34.519655 10.66549
2009-08-03 07:16:08 51°16.408 2°45.102 18.7311 4.623228 34.546172 10.769962
2009-08-03 07:16:14 51°16.416 2°45.074 18.732 4.623436 34.547911 10.83961
2009-08-03 07:16:18 51°16.421 2°45.056 18.7338 4.611493 34.4466 10.944082
2009-08-03 07:16:23 51°16.427 2°45.033 18.7387 4.626759 34.573113 11.048554
2009-08-03 07:16:28 51°16.434 2°45.01 18.7366 4.615231 34.474617 11.153027
2009-08-03 07:16:34 51°16.442 2°44.983 18.7353 4.615231 34.474617 11.153027
2009-08-03 07:16:38 51°16.447 2°44.965 18.7385 4.625305 34.557647 11.222675
2009-08-03 07:16:43 51°16.454 2°44.942 18.7395 4.616789 34.484377 11.292323
2009-08-03 07:16:48 51°16.461 2°44.919 18.7411 4.622812 34.532833 11.431619
2009-08-03 07:16:54 51°16.469 2°44.892 18.7461 4.601004 34.348358 11.501267
2009-08-03 07:16:58 51°16.474 2°44.874 18.7473 4.624266 34.541063 11.605739
2009-08-03 07:17:03 51°16.481 2°44.851 18.7475 4.624266 34.541063 11.605739
2009-08-03 07:17:08 51°16.487 2°44.828 18.7522 4.620631 34.509978 11.710211
2009-08-03 07:17:13 51°16.494 2°44.805 18.7536 4.620112 34.504975 11.745035
2009-08-03 07:17:19 51°16.502 2°44.778 18.7533 4.621151 34.511698 11.849508
2009-08-03 07:17:23 51°16.507 2°44.759 18.7548 4.624162 34.535594 11.95398
2009-08-03 07:17:28 51°16.514 2°44.736 18.7559 4.61845 34.485163 12.058452
2009-08-03 07:17:33 51°16.521 2°44.713 18.7598 4.61845 34.485163 12.058452
2009-08-03 07:17:38 51°16.527 2°44.69 18.7593 4.610662 34.418684 12.1281
2009-08-03 07:17:43 51°16.534 2°44.667 18.7618 4.616893 34.468849 12.197748
2009-08-03 07:17:48 51°16.54 2°44.644 18.7579 4.609727 34.40694 12.337044
2009-08-03 07:17:53 51°16.547 2°44.621 18.765 4.621566 34.504673 12.371868
2009-08-03 07:17:58 51°16.554 2°44.598 18.7605 4.621566 34.504673 12.371868
2009-08-03 07:18:03 51°16.56 2°44.574 18.7609 4.632055 34.591144 12.476341
2009-08-03 07:18:08 51°16.567 2°44.551 18.7635 4.625304 34.533332 12.545989
2009-08-03 07:18:13 51°16.573 2°44.528 18.7634 4.612739 34.426239 12.650461
2009-08-03 07:18:18 51°16.58 2°44.505 18.7649 4.633197 34.596759 12.720109
2009-08-03 07:18:23 51°16.587 2°44.482 18.7637 4.634755 34.608482 12.789757
2009-08-03 07:18:28 51°16.593 2°44.459 18.7639 4.633093 34.593259 12.894229
2009-08-03 07:18:34 51°16.601 2°44.432 18.7633 4.633093 34.593259 12.894229
2009-08-03 07:18:38 51°16.606 2°44.413 18.7634 4.626758 34.540245 12.998701
2009-08-03 07:18:43 51°16.613 2°44.39 18.7645 4.626654 34.538719 13.06835
2009-08-03 07:18:48 51°16.619 2°44.367 18.7636 4.630393 34.570004 13.137998
2009-08-03 07:18:53 51°16.626 2°44.344 18.7653 4.632989 34.591074 13.172822
2009-08-03 07:18:58 51°16.632 2°44.32 18.766 4.622812 34.505915 13.312118
2009-08-03 07:19:03 51°16.639 2°44.297 18.766 4.622812 34.505915 13.312118
2009-08-03 07:19:08 51°16.645 2°44.274 18.7661 4.619073 34.47464 13.41659
2009-08-03 07:19:13 51°16.651 2°44.25 18.7626 4.616892 34.455744 13.451414
2009-08-03 07:19:18 51°16.658 2°44.227 18.7649 4.629562 34.56108 13.555886
2009-08-03 07:19:23 51°16.665 2°44.204 18.7653 4.624058 34.515028 13.59071
2009-08-03 07:19:27 51°16.67 2°44.185 18.7658 4.623746 34.512422 13.695182
2009-08-03 07:19:33 51°16.678 2°44.157 18.7667 4.623746 34.512422 13.695182
2009-08-03 07:19:38 51°16.684 2°44.134 18.7649 4.624473 34.517848 13.799655
2009-08-03 07:19:43 51°16.69 2°44.111 18.7645 4.629043 34.556078 13.904127
2009-08-03 07:19:47 51°16.696 2°44.092 18.7621 4.615023 34.438801 14.008599
2009-08-03 07:19:53 51°16.703 2°44.064 18.7653 4.615439 34.44293 14.078247
2009-08-03 07:19:58 51°16.71 2°44.041 18.7624 4.615439 34.44293 14.078247
2009-08-03 07:20:03 51°16.716 2°44.017 18.763 4.602458 34.334394 14.147895
2009-08-03 07:20:08 51°16.723 2°43.994 18.762 4.631535 34.576935 14.182719
2009-08-03 07:20:14 51°16.731 2°43.966 18.7617 4.631847 34.579542 14.287191
2009-08-03 07:20:18 51°16.736 2°43.947 18.763 4.634235 34.600189 14.426488
2009-08-03 07:20:23 51°16.742 2°43.924 18.7659 4.628835 34.554997 14.565784
2009-08-03 07:20:28 51°16.748 2°43.901 18.7637 4.633093 34.590628 14.53096
2009-08-03 07:20:34 51°16.756 2°43.873 18.7641 4.633093 34.590628 14.53096
2009-08-03 07:20:38 51°16.761 2°43.854 18.7633 4.636624 34.620839 14.948848
2009-08-03 07:20:43 51°16.767 2°43.83 18.7659 4.634755 34.60585 15.297089
2009-08-03 07:20:48 51°16.774 2°43.807 18.7668 4.631016 34.574561 14.774728
2009-08-03 07:20:54 51°16.781 2°43.779 18.7666 4.581378 34.1589 14.774728
2009-08-03 07:20:58 51°16.786 2°43.76 18.7675 4.624162 34.515897 14.8792
2009-08-03 07:21:03 51°16.792 2°43.736 18.7664 4.624162 34.515897 14.8792
2009-08-03 07:21:08 51°16.797 2°43.712 18.7697 4.609208 34.390825 14.914024
2009-08-03 07:21:14 51°16.805 2°43.684 18.7728 4.616789 34.454221 14.983672
2009-08-03 07:21:18 51°16.81 2°43.665 18.7724 4.626654 34.53675 15.053321
2009-08-03 07:21:23 51°16.817 2°43.642 18.7727 4.637351 34.625607 15.122969
2009-08-03 07:21:28 51°16.823 2°43.619 18.7721 4.637351 34.625607 15.122969
2009-08-03 07:21:34 51°16.831 2°43.592 18.7723 4.634547 34.601481 15.227441
2009-08-03 07:21:39 51°16.838 2°43.569 18.7772 4.635897 34.612122 15.262265
2009-08-03 07:21:43 51°16.844 2°43.551 18.7744 4.63787 34.627978 15.331913
2009-08-03 07:21:48 51°16.851 2°43.528 18.7756 4.633612 34.591028 15.401561
2009-08-03 07:21:53 51°16.859 2°43.506 18.7741 4.633508 34.589502 15.471209
2009-08-03 07:21:59 51°16.867 2°43.479 18.7755 4.637351 34.621 15.540857
2009-08-03 07:22:03 51°16.873 2°43.461 18.7755 4.637351 34.621 15.540857
2009-08-03 07:22:08 51°16.881 2°43.438 18.7742 4.638078 34.626426 15.610505
2009-08-03 07:22:13 51°16.889 2°43.416 18.7774 4.634443 34.594693 15.680154
2009-08-03 07:22:18 51°16.896 2°43.394 18.7766 4.633197 34.583608 15.749802
2009-08-03 07:22:23 51°16.904 2°43.372 18.7756 4.637143 34.615972 15.81945
2009-08-03 07:22:28 51°16.912 2°43.35 18.7763 4.627797 34.537773 15.854274
2009-08-03 07:22:33 51°16.92 2°43.328 18.7767 4.627797 34.537773 15.854274
2009-08-03 07:22:38 51°16.928 2°43.306 18.7775 4.636105 34.607282 15.958746
2009-08-03 07:22:43 51°16.936 2°43.284 18.78 4.636728 34.612496 15.99357
2009-08-03 07:22:48 51°16.944 2°43.262 18.7792 4.632678 34.577949 16.063218
2009-08-03 07:22:53 51°16.952 2°43.239 18.7774 4.638286 34.624873 16.132866
2009-08-03 07:22:58 51°16.959 2°43.217 18.78 4.638701 34.627692 16.16769
2009-08-03 07:23:03 51°16.967 2°43.195 18.7782 4.638701 34.627692 16.16769
2009-08-03 07:23:08 51°16.975 2°43.173 18.779 4.634651 34.593801 16.237338
2009-08-03 07:23:14 51°16.984 2°43.146 18.7784 4.635897 34.603571 16.272162
2009-08-03 07:23:18 51°16.991 2°43.128 18.7774 4.634962 34.595093 16.341811
2009-08-03 07:23:23 51°16.999 2°43.106 18.7755 4.636624 34.608996 16.376635
2009-08-03 07:23:28 51°17.007 2°43.084 18.7736 4.636624 34.608996 16.376635
2009-08-03 07:23:34 51°17.017 2°43.057 18.7733 4.626343 34.522987 16.446283
2009-08-03 07:23:38 51°17.023 2°43.039 18.7713 4.635066 34.595304 16.515931
2009-08-03 07:23:43 51°17.031 2°43.017 18.7732 4.624785 34.509302 16.585579
2009-08-03 07:23:48 51°17.039 2°42.995 18.7697 4.634028 34.587273 16.620403
2009-08-03 07:23:54 51°17.049 2°42.969 18.7691 4.636105 34.605309 16.690051
2009-08-03 07:23:58 51°17.055 2°42.951 18.767 4.630912 34.563179 16.724875
2009-08-03 07:24:03 51°17.063 2°42.929 18.7653 4.630912 34.563179 16.724875
2009-08-03 07:24:08 51°17.071 2°42.906 18.7657 4.626966 34.530823 16.759699
2009-08-03 07:24:13 51°17.079 2°42.885 18.7644 4.630393 34.560149 16.864171
2009-08-03 07:24:18 51°17.087 2°42.863 18.7649 4.631743 34.572101 16.864171
2009-08-03 07:24:23 51°17.095 2°42.84 18.7616 4.630808 34.565595 16.898995
2009-08-03 07:24:28 51°17.103 2°42.819 18.7603 4.624577 34.514124 16.968644
2009-08-03 07:24:33 51°17.111 2°42.797 18.7592 4.624577 34.514124 16.968644
2009-08-03 07:24:38 51°17.119 2°42.775 18.7543 4.627485 34.539761 17.003468
2009-08-03 07:24:43 51°17.127 2°42.753 18.7552 4.630289 34.564535 17.038292
2009-08-03 07:24:47 51°17.133 2°42.735 18.7512 4.625927 34.529355 17.073116
2009-08-03 07:24:53 51°17.143 2°42.709 18.7515 4.623539 34.510028 17.142764
2009-08-03 07:24:58 51°17.151 2°42.686 18.7485 4.630912 34.573035 17.177588
2009-08-03 07:25:03 51°17.159 2°42.663 18.7485 4.630912 34.573035 17.177588
2009-08-03 07:25:07 51°17.165 2°42.646 18.7486 4.624162 34.517866 17.212412
2009-08-03 07:25:13 51°17.175 2°42.619 18.7457 4.626135 34.536345 17.247236
2009-08-03 07:25:18 51°17.183 2°42.597 18.7443 4.613673 34.434056 17.28206
2009-08-03 07:25:23 51°17.191 2°42.575 18.7444 4.630705 34.578528 17.316884
2009-08-03 07:25:27 51°17.197 2°42.557 18.7407 4.629355 34.568543 17.351708
2009-08-03 07:25:33 51°17.207 2°42.53 18.7393 4.629355 34.568543 17.351708
2009-08-03 07:25:38 51°17.215 2°42.508 18.7371 4.627797 34.556819 17.421356
2009-08-03 07:25:43 51°17.223 2°42.485 18.7375 4.620424 34.49577 17.421356
2009-08-03 07:25:48 51°17.231 2°42.462 18.7337 4.630185 34.578785 17.491004
2009-08-03 07:25:54 51°17.24 2°42.435 18.7316 4.628939 34.569668 17.491004
2009-08-03 07:25:58 51°17.247 2°42.417 18.7285 4.631328 34.591637 17.525828
2009-08-03 07:26:03 51°17.254 2°42.395 18.7264 4.631328 34.591637 17.525828
2009-08-03 07:26:08 51°17.262 2°42.372 18.7296 4.628628 34.571005 17.560652
2009-08-03 07:26:14 51°17.272 2°42.346 18.7265 4.632574 34.605362 17.595476
2009-08-03 07:26:18 51°17.279 2°42.328 18.7233 4.627693 34.566468 17.630301
2009-08-03 07:26:23 51°17.287 2°42.305 18.7218 4.628836 34.577348 17.665125
2009-08-03 07:26:28 51°17.295 2°42.283 18.7184 4.627486 34.568017 17.699949
2009-08-03 07:26:34 51°17.304 2°42.256 18.7156 4.627486 34.568017 17.699949
2009-08-03 07:26:38 51°17.31 2°42.238 18.713 4.616062 34.474356 17.734773
2009-08-03 07:26:43 51°17.318 2°42.215 18.7175 4.627693 34.573045 17.734773
2009-08-03 07:26:48 51°17.326 2°42.192 18.7101 4.627589 34.573491 17.769597
2009-08-03 07:26:53 51°17.334 2°42.17 18.7066 4.620839 34.518284 17.804421
2009-08-03 07:26:58 51°17.342 2°42.148 18.7046 4.620839 34.518284 17.804421
2009-08-03 07:27:03 51°17.35 2°42.126 18.7034 4.624786 34.554614 17.839245
2009-08-03 07:27:08 51°17.358 2°42.103 18.7032 4.619385 34.512022 17.874069
2009-08-03 07:27:13 51°17.366 2°42.081 18.6948 4.628109 34.586396 17.874069
2009-08-03 07:27:18 51°17.374 2°42.059 18.6916 4.621359 34.531174 17.908893
2009-08-03 07:27:23 51°17.382 2°42.036 18.6895 4.627278 34.582728 17.943717
2009-08-03 07:27:28 51°17.389 2°42.013 18.6873 4.623643 34.554913 17.943717
2009-08-03 07:27:34 51°17.397 2°41.985 18.6834 4.623643 34.554913 17.943717
2009-08-03 07:27:38 51°17.403 2°41.967 18.68 4.628317 34.596038 17.978541
2009-08-03 07:27:43 51°17.409 2°41.943 18.6784 4.62624 34.581929 17.978541
2009-08-03 07:27:48 51°17.416 2°41.919 18.6735 4.621878 34.54736 17.978541
2009-08-03 07:27:54 51°17.423 2°41.891 18.6713 4.623124 34.56175 18.013365
2009-08-03 07:27:58 51°17.428 2°41.872 18.6672 4.626344 34.592021 18.048189
2009-08-03 07:28:03 51°17.434 2°41.848 18.6671 4.626344 34.592021 18.048189
2009-08-03 07:28:08 51°17.44 2°41.824 18.6611 4.615128 34.501327 18.048189
2009-08-03 07:28:14 51°17.448 2°41.795 18.6576 4.626759 34.601435 18.083013
2009-08-03 07:28:18 51°17.452 2°41.775 18.6511 4.624267 34.583179 18.083013
2009-08-03 07:28:23 51°17.458 2°41.751 18.6568 4.623332 34.578638 18.152661
2009-08-03 07:28:28 51°17.463 2°41.726 18.6471 4.624163 34.588899 18.152661
2009-08-03 07:28:33 51°17.468 2°41.702 18.6472 4.624163 34.588899 18.152661
2009-08-03 07:28:38 51°17.472 2°41.677 18.6423 4.626863 34.613517 18.152661
2009-08-03 07:28:43 51°17.477 2°41.652 18.631 4.62354 34.589608 18.187485
2009-08-03 07:28:48 51°17.481 2°41.627 18.6298 4.617725 34.54414 18.222309
2009-08-03 07:28:53 51°17.485 2°41.602 18.6315 4.623333 34.59512 18.222309
2009-08-03 07:28:58 51°17.489 2°41.577 18.6269 4.623333 34.59512 18.222309
2009-08-03 07:29:03 51°17.493 2°41.551 18.6216 4.618244 34.554422 18.257134
2009-08-03 07:29:08 51°17.497 2°41.526 18.621 4.62084 34.579492 18.291958
2009-08-03 07:29:13 51°17.5 2°41.5 18.6163 4.620321 34.579093 18.291958
2009-08-03 07:29:18 51°17.504 2°41.475 18.6128 4.617621 34.561059 18.291958
2009-08-03 07:29:23 51°17.508 2°41.45 18.6125 4.620841 34.592027 18.326782
2009-08-03 07:29:28 51°17.512 2°41.424 18.6107 4.620218 34.590098 18.361606
2009-08-03 07:29:33 51°17.516 2°41.399 18.6092 4.620218 34.590098 18.361606
2009-08-03 07:29:38 51°17.519 2°41.373 18.6071 4.621983 34.607554 18.361606
2009-08-03 07:29:43 51°17.523 2°41.348 18.6029 4.620321 34.596911 18.39643
2009-08-03 07:29:48 51°17.527 2°41.323 18.5982 4.620425 34.601745 18.431254
2009-08-03 07:29:53 51°17.531 2°41.297 18.597 4.616791 34.573217 18.431254
2009-08-03 07:29:58 51°17.535 2°41.272 18.5992 4.612948 34.543607 18.466078
2009-08-03 07:30:03 51°17.539 2°41.247 18.5972 4.612948 34.543607 18.466078
2009-08-03 07:30:08 51°17.543 2°41.221 18.5986 4.619179 34.597228 18.500902
2009-08-03 07:30:13 51°17.547 2°41.196 18.5969 4.619076 34.598998 18.535726
2009-08-03 07:30:18 51°17.551 2°41.171 18.5966 4.618349 34.595538 18.535726
2009-08-03 07:30:23 51°17.555 2°41.145 18.5917 4.611495 34.540637 18.57055
2009-08-03 07:30:27 51°17.558 2°41.125 18.5894 4.611495 34.540637 18.57055
2009-08-03 07:30:33 51°17.562 2°41.094 18.5882 4.61918 34.607139 18.605374
2009-08-03 07:30:38 51°17.566 2°41.069 18.5873 4.617622 34.59538 18.605374
2009-08-03 07:30:43 51°17.569 2°41.044 18.5889 4.618037 34.599529 18.640198
2009-08-03 07:30:47 51°17.573 2°41.024 18.5862 4.613468 34.561161 18.675022
2009-08-03 07:30:53 51°17.577 2°40.993 18.5865 4.615441 34.579709 18.709846
2009-08-03 07:30:58 51°17.581 2°40.968 18.5861 4.613779 34.567738 18.709846
2009-08-03 07:31:03 51°17.585 2°40.942 18.5782 4.613779 34.567738 18.709846
2009-08-03 07:31:07 51°17.588 2°40.922 18.583 4.610456 34.541814 18.74467
2009-08-03 07:31:13 51°17.592 2°40.891 18.5764 4.61191 34.555342 18.779494
2009-08-03 07:31:18 51°17.596 2°40.866 18.5735 4.619284 34.61859 18.779494
2009-08-03 07:31:23 51°17.6 2°40.841 18.5747 4.618349 34.6114 18.814318
2009-08-03 07:31:28 51°17.604 2°40.815 18.5728 4.617518 34.605744 18.849142
2009-08-03 07:31:34 51°17.609 2°40.785 18.57 4.617518 34.605744 18.849142
2009-08-03 07:31:38 51°17.612 2°40.765 18.568 4.617207 34.60511 18.849142
2009-08-03 07:31:43 51°17.616 2°40.74 18.5672 4.616584 34.601198 18.883966
2009-08-03 07:31:48 51°17.62 2°40.714 18.5657 4.613884 34.581161 18.883966
2009-08-03 07:31:54 51°17.624 2°40.684 18.5609 4.616687 34.606038 18.918791
2009-08-03 07:31:58 51°17.627 2°40.664 18.5585 4.614507 34.589039 18.918791
2009-08-03 07:32:03 51°17.631 2°40.638 18.5535 4.614507 34.589039 18.918791
2009-08-03 07:32:08 51°17.635 2°40.613 18.554 4.617934 34.619155 18.953615
2009-08-03 07:32:14 51°17.64 2°40.583 18.5522 4.607653 34.534765 18.988439
2009-08-03 07:32:18 51°17.643 2°40.562 18.5531 4.615961 34.606545 18.988439
2009-08-03 07:32:23 51°17.647 2°40.537 18.5501 4.615026 34.600676 19.023263
2009-08-03 07:32:28 51°17.651 2°40.512 18.5493 4.61513 34.604856 19.023263
2009-08-03 07:32:34 51°17.655 2°40.482 18.5454 4.61513 34.604856 19.023263
2009-08-03 07:32:38 51°17.658 2°40.461 18.5439 4.614715 34.60335 19.058087
2009-08-03 07:32:43 51°17.662 2°40.436 18.5406 4.614507 34.604251 19.058087
2009-08-03 07:32:48 51°17.666 2°40.411 18.5401 4.613884 34.600999 19.058087
2009-08-03 07:32:54 51°17.671 2°40.381 18.5364 4.611288 34.5805 19.092911
2009-08-03 07:32:59 51°17.676 2°40.356 18.5346 4.61378 34.602773 19.127735
2009-08-03 07:33:03 51°17.679 2°40.335 18.5325 4.61378 34.602773 19.127735
2009-08-03 07:33:08 51°17.683 2°40.31 18.5303 4.613261 34.600393 19.127735
2009-08-03 07:33:13 51°17.687 2°40.285 18.5355 4.612222 34.593649 19.162559
2009-08-03 07:33:19 51°17.692 2°40.255 18.5299 4.612326 34.596507 19.162559
2009-08-03 07:33:23 51°17.696 2°40.235 18.5231 4.612223 34.597619 19.197383
2009-08-03 07:33:28 51°17.7 2°40.21 18.5213 4.612534 34.602224 19.197383
2009-08-03 07:33:33 51°17.704 2°40.185 18.5263 4.612534 34.602224 19.197383
2009-08-03 07:33:38 51°17.709 2°40.16 18.5192 4.610042 34.583916 19.232207
2009-08-03 07:33:43 51°17.713 2°40.135 18.5175 4.610042 34.585901 19.232207
2009-08-03 07:33:48 51°17.718 2°40.11 18.5129 4.606511 34.556876 19.267031
2009-08-03 07:33:53 51°17.722 2°40.085 18.5123 4.610353 34.591169 19.267031
2009-08-03 07:33:58 51°17.726 2°40.06 18.5093 4.6089 34.580928 19.301855
2009-08-03 07:34:03 51°17.731 2°40.035 18.5086 4.6089 34.580928 19.301855
2009-08-03 07:34:08 51°17.735 2°40.01 18.5078 4.610042 34.592521 19.301855
2009-08-03 07:34:13 51°17.739 2°39.984 18.502 4.606096 34.561982 19.301855
2009-08-03 07:34:18 51°17.744 2°39.959 18.5034 4.607757 34.57794 19.301855
2009-08-03 07:34:23 51°17.748 2°39.934 18.4994 4.608796 34.589323 19.301855
2009-08-03 07:34:28 51°17.752 2°39.909 18.5019 4.606615 34.573627 19.336679
2009-08-03 07:34:34 51°17.758 2°39.879 18.4956 4.606615 34.573627 19.336679
2009-08-03 07:34:38 51°17.761 2°39.859 18.4947 4.609004 34.595706 19.371503
2009-08-03 07:34:43 51°17.766 2°39.834 18.4948 4.603292 34.549646 19.371503
2009-08-03 07:34:48 51°17.77 2°39.809 18.4941 4.606823 34.581333 19.371503
2009-08-03 07:34:53 51°17.775 2°39.784 18.4929 4.604227 34.561478 19.371503
2009-08-03 07:34:58 51°17.779 2°39.758 18.4905 4.606823 34.584644 19.406327
2009-08-03 07:35:03 51°17.783 2°39.733 18.4894 4.606823 34.584644 19.406327
2009-08-03 07:35:07 51°17.786 2°39.713 18.4863 4.607758 34.593833 19.406327
2009-08-03 07:35:13 51°17.791 2°39.683 18.4858 4.60485 34.570692 19.441151
2009-08-03 07:35:18 51°17.796 2°39.658 18.4861 4.602877 34.556077 19.406327
2009-08-03 07:35:23 51°17.8 2°39.633 18.4839 4.6062 34.586026 19.441151
2009-08-03 07:35:27 51°17.804 2°39.613 18.4813 4.605369 34.579697 19.441151
2009-08-03 07:35:33 51°17.809 2°39.584 18.4808 4.605369 34.579697 19.441151
2009-08-03 07:35:38 51°17.814 2°39.559 18.4808 4.606304 34.58955 19.441151
2009-08-03 07:35:43 51°17.819 2°39.534 18.4794 4.605058 34.580388 19.441151
2009-08-03 07:35:47 51°17.822 2°39.514 18.4754 4.604227 34.575383 19.441151
2009-08-03 07:35:53 51°17.828 2°39.484 18.4753 4.605889 34.59003 19.441151
2009-08-03 07:35:58 51°17.833 2°39.459 18.4751 4.605889 34.59003 19.441151
2009-08-03 07:36:03 51°17.838 2°39.435 18.4745 4.604643 34.58153 19.475975
2009-08-03 07:36:08 51°17.842 2°39.41 18.4726 4.604331 34.580233 19.510799
2009-08-03 07:36:14 51°17.848 2°39.38 18.4694 4.59997 34.544186 19.475975
2009-08-03 07:36:18 51°17.851 2°39.36 18.4696 4.599139 34.538518 19.510799
2009-08-03 07:36:23 51°17.856 2°39.336 18.4643 4.608277 34.617431 19.510799
2009-08-03 07:36:28 51°17.861 2°39.311 18.466 4.606512 34.603894 19.545624
2009-08-03 07:36:34 51°17.866 2°39.281 18.4648 4.606512 34.603894 19.545624
2009-08-03 07:36:38 51°17.87 2°39.261 18.4619 4.607343 34.611552 19.545624
2009-08-03 07:36:43 51°17.875 2°39.237 18.4612 4.605473 34.596477 19.545624
2009-08-03 07:36:48 51°17.879 2°39.212 18.4585 4.605058 34.594969 19.545624
2009-08-03 07:36:54 51°17.885 2°39.182 18.4579 4.604954 34.595421 19.545624
2009-08-03 07:36:58 51°17.888 2°39.162 18.4563 4.603501 34.58517 19.545624
2009-08-03 07:37:03 51°17.893 2°39.137 18.458 4.603501 34.58517 19.545624
2009-08-03 07:37:08 51°17.897 2°39.112 18.4553 4.604331 34.593491 19.510799
2009-08-03 07:37:14 51°17.903 2°39.082 18.4498 4.603501 34.587822 19.545624
2009-08-03 07:37:18 51°17.907 2°39.062 18.4513 4.604124 34.595721 19.545624
2009-08-03 07:37:23 51°17.911 2°39.038 18.4464 4.600697 34.56819 19.545624
2009-08-03 07:37:28 51°17.916 2°39.013 18.4476 4.597166 34.539786 19.545624
2009-08-03 07:37:34 51°17.922 2°38.983 18.4467 4.597166 34.539786 19.545624
2009-08-03 07:37:39 51°17.926 2°38.958 18.4467 4.601528 34.577174 19.580448
2009-08-03 07:37:43 51°17.93 2°38.939 18.4429 4.604228 34.60124 19.615272
2009-08-03 07:37:48 51°17.935 2°38.914 18.4427 4.603501 34.596445 19.615272
2009-08-03 07:37:53 51°17.939 2°38.889 18.4402 4.604228 34.604558 19.615272
2009-08-03 07:37:59 51°17.944 2°38.859 18.4376 4.603501 34.600426 19.650096
2009-08-03 07:38:03 51°17.948 2°38.839 18.4389 4.603501 34.600426 19.650096
2009-08-03 07:38:08 51°17.952 2°38.814 18.4366 4.603189 34.599129 19.650096
2009-08-03 07:38:13 51°17.957 2°38.789 18.436 4.603189 34.599793 19.68492
2009-08-03 07:38:18 51°17.961 2°38.765 18.4378 4.603189 34.601784 19.68492
2009-08-03 07:38:23 51°17.965 2°38.739 18.434 4.601736 34.590863 19.68492
2009-08-03 07:38:28 51°17.97 2°38.715 18.4326 4.601216 34.58848 19.719744
2009-08-03 07:38:33 51°17.974 2°38.69 18.4358 4.601216 34.58848 19.719744
2009-08-03 07:38:38 51°17.979 2°38.665 18.43 4.600178 34.581058 19.719744
2009-08-03 07:38:43 51°17.983 2°38.64 18.4332 4.597893 34.563138 19.719744
2009-08-03 07:38:48 51°17.988 2°38.615 18.4264 4.600386 34.584799 19.719744
2009-08-03 07:38:53 51°17.992 2°38.591 18.4265 4.596024 34.548718 19.754568
2009-08-03 07:38:58 51°17.997 2°38.566 18.4262 4.601216 34.593126 19.719744
2009-08-03 07:39:03 51°18.001 2°38.541 18.4307 4.601216 34.593126 19.719744
2009-08-03 07:39:07 51°18.004 2°38.521 18.4302 4.596855 34.557705 19.719744
2009-08-03 07:39:13 51°18.009 2°38.491 18.4251 4.596647 34.556619 19.719744
2009-08-03 07:39:18 51°18.014 2°38.466 18.4258 4.599866 34.585069 19.754568
2009-08-03 07:39:23 51°18.018 2°38.441 18.4266 4.599763 34.585522 19.754568
2009-08-03 07:39:28 51°18.022 2°38.416 18.4254 4.599763 34.585522 19.754568
2009-08-03 07:39:34 51°18.027 2°38.387 18.4256 4.601009 34.596686 19.719744
2009-08-03 07:39:38 51°18.031 2°38.367 18.4224 4.601632 34.602601 19.754568
2009-08-03 07:39:43 51°18.035 2°38.342 18.4211 4.599036 34.580724 19.754568
2009-08-03 07:39:48 51°18.039 2°38.316 18.4245 4.600593 34.595178 19.754568
2009-08-03 07:39:53 51°18.044 2°38.292 18.4243 4.594467 34.544213 19.754568
2009-08-03 07:39:58 51°18.048 2°38.266 18.4268 4.586886 34.481013 19.754568
2009-08-03 07:40:03 51°18.052 2°38.241 18.4238 4.586886 34.481013 19.754568
2009-08-03 07:40:08 51°18.056 2°38.216 18.4233 4.600386 34.595419 19.754568
2009-08-03 07:40:13 51°18.06 2°38.191 18.423 4.601113 34.60221 19.754568
2009-08-03 07:40:18 51°18.064 2°38.166 18.4221 4.601009 34.601999 19.754568
2009-08-03 07:40:23 51°18.069 2°38.142 18.4186 4.599659 34.590621 19.754568
2009-08-03 07:40:28 51°18.073 2°38.116 18.419 4.601528 34.605711 19.754568
2009-08-03 07:40:34 51°18.078 2°38.087 18.4168 4.601528 34.605711 19.754568
2009-08-03 07:40:38 51°18.081 2°38.067 18.4197 4.599036 34.584706 19.754568
2009-08-03 07:40:43 51°18.085 2°38.042 18.4194 4.600905 34.60046 19.754568
2009-08-03 07:40:48 51°18.089 2°38.016 18.4176 4.59914 34.586245 19.754568
2009-08-03 07:40:53 51°18.093 2°37.991 18.4157 4.601009 34.602663 19.754568
2009-08-03 07:40:58 51°18.097 2°37.966 18.4137 4.601009 34.603992 19.754568
2009-08-03 07:41:03 51°18.1 2°37.941 18.4102 4.601009 34.603992 19.754568
2009-08-03 07:41:08 51°18.104 2°37.915 18.4102 4.600074 34.597442 19.754568
2009-08-03 07:41:13 51°18.106 2°37.89 18.41 4.600282 34.599857 19.789392
2009-08-03 07:41:18 51°18.109 2°37.864 18.4087 4.600905 34.605774 19.789392
2009-08-03 07:41:23 51°18.11 2°37.838 18.404 4.598932 34.589806 19.789392
2009-08-03 07:41:28 51°18.113 2°37.812 18.4045 4.598932 34.589806 19.789392
2009-08-03 07:41:34 51°18.114 2°37.78 18.4024 4.599971 34.599888 19.789392
2009-08-03 07:41:38 51°18.115 2°37.76 18.4046 4.60049 34.606259 19.789392
2009-08-03 07:41:43 51°18.117 2°37.733 18.4062 4.595817 34.56753 19.789392
2009-08-03 07:41:48 51°18.118 2°37.707 18.4035 4.600074 34.60475 19.824216
2009-08-03 07:41:53 51°18.12 2°37.681 18.4053 4.597894 34.588358 19.824216
2009-08-03 07:41:59 51°18.122 2°37.649 18.4022 4.59914 34.600193 19.824216
2009-08-03 07:42:03 51°18.123 2°37.629 18.4004 4.59914 34.600193 19.824216
2009-08-03 07:42:08 51°18.124 2°37.602 18.4009 4.599348 34.603273 19.824216
2009-08-03 07:42:13 51°18.126 2°37.576 18.4024 4.597686 34.589264 19.85904
2009-08-03 07:42:18 51°18.127 2°37.55 18.4033 4.598517 34.596268 19.85904
2009-08-03 07:42:23 51°18.129 2°37.524 18.4017 4.598932 34.600435 19.85904
2009-08-03 07:42:28 51°18.13 2°37.498 18.4039 4.598725 34.599348 19.85904
2009-08-03 07:42:34 51°18.132 2°37.466 18.4027 4.598725 34.599348 19.85904
2009-08-03 07:42:38 51°18.133 2°37.445 18.4031 4.598205 34.595635 19.85904
2009-08-03 07:42:43 51°18.134 2°37.419 18.4023 4.59914 34.60418 19.85904
2009-08-03 07:42:48 51°18.136 2°37.393 18.4018 4.596025 34.577248 19.85904
2009-08-03 07:42:53 51°18.137 2°37.367 18.3998 4.597478 34.59017 19.85904
2009-08-03 07:42:58 51°18.138 2°37.341 18.4053 4.598621 34.599137 19.893864
2009-08-03 07:43:03 51°18.139 2°37.314 18.4031 4.598621 34.599137 19.893864
2009-08-03 07:43:08 51°18.14 2°37.288 18.4035 4.59239 34.546607 19.893864
2009-08-03 07:43:13 51°18.141 2°37.262 18.4039 4.598725 34.599348 19.893864
2009-08-03 07:43:18 51°18.142 2°37.236 18.403 4.59644 34.58075 19.928688
2009-08-03 07:43:23 51°18.144 2°37.21 18.4027 4.599036 34.603304 19.893864
2009-08-03 07:43:27 51°18.145 2°37.189 18.4037 4.597686 34.591921 19.928688
2009-08-03 07:43:33 51°18.146 2°37.158 18.4055 4.597686 34.591921 19.928688
2009-08-03 07:43:38 51°18.147 2°37.132 18.403 4.598932 34.601764 19.928688
2009-08-03 07:43:43 51°18.149 2°37.106 18.4069 4.596752 34.583377 19.928688
2009-08-03 07:43:47 51°18.15 2°37.085 18.4047 4.598205 34.595635 19.928688
2009-08-03 07:43:53 51°18.152 2°37.054 18.4052 4.594155 34.561489 19.928688
2009-08-03 07:43:58 51°18.153 2°37.028 18.4036 4.593325 34.554486 19.963512
2009-08-03 07:44:03 51°18.154 2°37.002 18.406 4.593325 34.554486 19.963512
2009-08-03 07:44:07 51°18.155 2°36.981 18.4053 4.595921 34.575708 19.963512
2009-08-03 07:44:13 51°18.156 2°36.949 18.4065 4.590521 34.530187 19.963512
2009-08-03 07:44:18 51°18.158 2°36.923 18.4018 4.595713 34.573957 19.963512
2009-08-03 07:44:23 51°18.16 2°36.897 18.4026 4.59374 34.557324 19.963512
2009-08-03 07:44:28 51°18.161 2°36.871 18.4034 4.596025 34.57592 19.963512
2009-08-03 07:44:34 51°18.164 2°36.84 18.4019 4.596025 34.57592 19.963512
2009-08-03 07:44:38 51°18.165 2°36.82 18.4048 4.599555 34.605689 19.998336
2009-08-03 07:44:43 51°18.167 2°36.794 18.4059 4.59644 34.579422 19.998336
2009-08-03 07:44:48 51°18.169 2°36.768 18.403 4.597063 34.584675 19.998336
2009-08-03 07:44:53 51°18.17 2°36.742 18.404 4.598413 34.596057 19.998336
2009-08-03 07:44:58 51°18.172 2°36.716 18.4033 4.598413 34.596057 19.998336
2009-08-03 07:45:03 51°18.174 2°36.69 18.4005 4.598413 34.596722 19.998336
2009-08-03 07:45:08 51°18.175 2°36.664 18.4044 4.597375 34.587966 19.998336
2009-08-03 07:45:14 51°18.177 2°36.633 18.4047 4.598413 34.596722 20.03316
2009-08-03 07:45:18 51°18.178 2°36.612 18.4023 4.598621 34.598473 20.03316
2009-08-03 07:45:23 51°18.18 2°36.586 18.4069 4.59644 34.580086 20.03316
2009-08-03 07:45:28 51°18.181 2°36.56 18.4049 4.597686 34.591257 20.03316
2009-08-03 07:45:34 51°18.184 2°36.529 18.4028 4.597686 34.591257 20.03316
2009-08-03 07:45:38 51°18.185 2°36.508 18.4024 4.595298 34.571783 20.067984
2009-08-03 07:45:43 51°18.187 2°36.483 18.4054 4.597167 34.586879 20.067984
2009-08-03 07:45:48 51°18.188 2°36.457 18.404 4.598102 34.594759 20.067984
2009-08-03 07:45:53 51°18.19 2°36.431 18.4014 4.595921 34.575708 20.067984
2009-08-03 07:45:58 51°18.192 2°36.405 18.4028 4.596128 34.577459 20.067984
2009-08-03 07:46:03 51°18.194 2°36.379 18.4005 4.596128 34.577459 20.067984
2009-08-03 07:46:08 51°18.196 2°36.354 18.4008 4.592702 34.549233 20.102808
2009-08-03 07:46:14 51°18.198 2°36.322 18.4024 4.595817 34.575497 20.102808
2009-08-03 07:46:19 51°18.2 2°36.297 18.3999 4.595921 34.575708 20.102808
2009-08-03 07:46:23 51°18.202 2°36.276 18.4009 4.596232 34.578999 20.102808
2009-08-03 07:46:28 51°18.204 2°36.25 18.4015 4.596959 34.585128 20.102808
2009-08-03 07:46:33 51°18.207 2°36.224 18.399 4.596959 34.585128 20.102808
2009-08-03 07:46:38 51°18.209 2°36.199 18.3998 4.598517 34.599591 20.137632
2009-08-03 07:46:43 51°18.212 2°36.172 18.4006 4.598102 34.596088 20.137632
2009-08-03 07:46:48 51°18.214 2°36.146 18.3998 4.596232 34.580327 20.137632
2009-08-03 07:46:53 51°18.216 2°36.12 18.3993 4.593013 34.55385 20.137632
2009-08-03 07:46:59 51°18.219 2°36.09 18.3987 4.596855 34.586245 20.137632
2009-08-03 07:47:03 51°18.22 2°36.069 18.397 4.596855 34.586245 20.137632
2009-08-03 07:47:08 51°18.222 2°36.043 18.3959 4.595609 34.576402 20.137632
2009-08-03 07:47:13 51°18.224 2°36.017 18.3967 4.591767 34.544008 20.137632
2009-08-03 07:47:18 51°18.226 2°35.991 18.3956 4.59509 34.572689 20.137632
2009-08-03 07:47:23 51°18.228 2°35.965 18.3974 4.595402 34.575315 20.172456
2009-08-03 07:47:28 51°18.23 2°35.939 18.3957 4.600282 34.615807 20.172456
2009-08-03 07:47:34 51°18.233 2°35.908 18.3977 4.600282 34.615807 20.172456
2009-08-03 07:47:38 51°18.234 2°35.887 18.3941 4.598829 34.604877 20.172456
2009-08-03 07:47:43 51°18.237 2°35.861 18.3923 4.600075 34.61605 20.172456
2009-08-03 07:47:48 51°18.239 2°35.835 18.39 4.600075 34.616715 20.207281
2009-08-03 07:47:53 51°18.241 2°35.809 18.3917 4.599971 34.61584 20.207281
2009-08-03 07:47:58 51°18.243 2°35.783 18.3901 4.599971 34.61584 20.207281
2009-08-03 07:48:03 51°18.245 2°35.757 18.3877 4.599971 34.61584 20.207281
2009-08-03 07:48:08 51°18.247 2°35.731 18.388 4.599763 34.614088 20.207281
2009-08-03 07:48:13 51°18.249 2°35.705 18.3871 4.599036 34.608622 20.207281
2009-08-03 07:48:18 51°18.251 2°35.679 18.388 4.595506 34.580176 20.207281
2009-08-03 07:48:23 51°18.253 2°35.653 18.3844 4.596129 34.586759 20.207281
2009-08-03 07:48:28 51°18.256 2°35.627 18.3845 4.596129 34.586759 20.207281
2009-08-03 07:48:33 51°18.258 2°35.601 18.3828 4.598932 34.611071 20.207281
2009-08-03 07:48:38 51°18.26 2°35.575 18.3786 4.598102 34.604729 20.242105
2009-08-03 07:48:43 51°18.262 2°35.549 18.3799 4.599036 34.613942 20.242105
2009-08-03 07:48:47 51°18.264 2°35.528 18.3773 4.596856 34.596213 20.242105
2009-08-03 07:48:53 51°18.266 2°35.497 18.3733 4.598517 34.611558 20.242105
2009-08-03 07:48:58 51°18.268 2°35.471 18.3734 4.598517 34.612888 20.242105
2009-08-03 07:49:03 51°18.27 2°35.445 18.3707 4.598517 34.612888 20.242105
2009-08-03 07:49:07 51°18.272 2°35.424 18.3669 4.595817 34.590778 20.242105
2009-08-03 07:49:13 51°18.275 2°35.393 18.3664 4.598102 34.611379 20.276929
2009-08-03 07:49:18 51°18.277 2°35.367 18.3634 4.59779 34.610747 20.242105
2009-08-03 07:49:23 51°18.279 2°35.341 18.3611 4.597583 34.610325 20.276929
2009-08-03 07:49:27 51°18.281 2°35.32 18.3584 4.597271 34.609692 20.276929
2009-08-03 07:49:33 51°18.284 2°35.289 18.357 4.597271 34.609692 20.276929
2009-08-03 07:49:38 51°18.286 2°35.263 18.3535 4.59696 34.608394 20.276929
2009-08-03 07:49:43 51°18.288 2°35.237 18.3557 4.596648 34.608427 20.311753
2009-08-03 07:49:48 51°18.291 2°35.211 18.3512 4.596337 34.607129 20.276929
2009-08-03 07:49:54 51°18.293 2°35.181 18.3473 4.593741 34.587883 20.311753
2009-08-03 07:49:58 51°18.295 2°35.16 18.3476 4.59561 34.606317 20.311753
2009-08-03 07:50:03 51°18.297 2°35.134 18.3461 4.59561 34.606317 20.311753
2009-08-03 07:50:08 51°18.3 2°35.108 18.3435 4.594779 34.601303 20.311753
2009-08-03 07:50:14 51°18.302 2°35.077 18.3427 4.595195 34.606805 20.346577
2009-08-03 07:50:18 51°18.304 2°35.056 18.3411 4.592702 34.587101 20.346577
2009-08-03 07:50:23 51°18.306 2°35.03 18.3408 4.593325 34.594355 20.311753
2009-08-03 07:50:28 51°18.309 2°35.004 18.3382 4.592495 34.59067 20.346577
2009-08-03 07:50:34 51°18.311 2°34.973 18.3339 4.592495 34.59067 20.346577
2009-08-03 07:50:38 51°18.313 2°34.952 18.3327 4.591976 34.587618 20.346577
2009-08-03 07:50:43 51°18.316 2°34.926 18.3302 4.592391 34.593121 20.381401
2009-08-03 07:50:48 51°18.318 2°34.9 18.3291 4.587095 34.549748 20.381401
2009-08-03 07:50:54 51°18.321 2°34.869 18.3226 4.592806 34.59929 20.416225
2009-08-03 07:50:59 51°18.323 2°34.843 18.3245 4.591041 34.585717 20.416225
2009-08-03 07:51:03 51°18.325 2°34.822 18.3254 4.591041 34.585717 20.416225
2009-08-03 07:51:08 51°18.327 2°34.796 18.3242 4.58751 34.557907 20.451049
2009-08-03 07:51:13 51°18.329 2°34.77 18.3198 4.58886 34.571964 20.451049
2009-08-03 07:51:19 51°18.332 2°34.739 18.3217 4.588341 34.569576 20.451049
2009-08-03 07:51:23 51°18.334 2°34.719 18.3204 4.589276 34.579463 20.485873
2009-08-03 07:51:28 51°18.336 2°34.693 18.3221 4.589587 34.584091 20.520697
2009-08-03 07:51:33 51°18.338 2°34.667 18.3144 4.589587 34.584091 20.520697
2009-08-03 07:51:38 51°18.34 2°34.641 18.3149 4.590211 34.591349 20.520697
2009-08-03 07:51:43 51°18.342 2°34.615 18.3142 4.589588 34.587419 20.520697
2009-08-03 07:51:48 51°18.344 2°34.589 18.3127 4.586057 34.558269 20.555521
2009-08-03 07:51:53 51°18.346 2°34.563 18.3112 4.590003 34.593591 20.555521
2009-08-03 07:51:58 51°18.348 2°34.537 18.3092 4.589276 34.588117 20.590345
2009-08-03 07:52:03 51°18.349 2°34.511 18.3103 4.589276 34.588117 20.590345
2009-08-03 07:52:07 51°18.351 2°34.49 18.311 4.58803 34.578924 20.555521
2009-08-03 07:52:13 51°18.353 2°34.458 18.3063 4.586161 34.565134 20.555521
2009-08-03 07:52:18 51°18.355 2°34.433 18.3081 4.588757 34.588393 20.555521
2009-08-03 07:52:23 51°18.357 2°34.407 18.3039 4.588861 34.590602 20.590345
2009-08-03 07:52:28 51°18.359 2°34.381 18.3042 4.588861 34.591268 20.590345
2009-08-03 07:52:34 51°18.362 2°34.35 18.304 4.588861 34.591268 20.590345
2009-08-03 07:52:38 51°18.363 2°34.329 18.303 4.588653 34.59018 20.590345
2009-08-03 07:52:43 51°18.366 2°34.303 18.2999 4.588549 34.590635 20.590345
2009-08-03 07:52:48 51°18.368 2°34.278 18.3007 4.588134 34.587792 20.555521
2009-08-03 07:52:54 51°18.37 2°34.247 18.2989 4.588134 34.589124 20.555521
2009-08-03 07:52:58 51°18.372 2°34.226 18.2999 4.587926 34.589368 20.590345
2009-08-03 07:53:03 51°18.374 2°34.2 18.299 4.587926 34.589368 20.590345
2009-08-03 07:53:08 51°18.376 2°34.174 18.3017 4.587303 34.58477 20.590345
2009-08-03 07:53:13 51°18.378 2°34.148 18.2955 4.587719 34.588946 20.590345
2009-08-03 07:53:18 51°18.381 2°34.122 18.2966 4.587615 34.589401 20.590345
2009-08-03 07:53:23 51°18.383 2°34.097 18.296 4.587407 34.588312 20.590345
2009-08-03 07:53:28 51°18.385 2°34.071 18.2988 4.587407 34.588979 20.625169
2009-08-03 07:53:33 51°18.387 2°34.045 18.2962 4.587407 34.588979 20.625169
2009-08-03 07:53:38 51°18.388 2°34.019 18.2981 4.5872 34.587224 20.625169
2009-08-03 07:53:43 51°18.39 2°33.993 18.2958 4.587303 34.588767 20.625169
2009-08-03 07:53:48 51°18.393 2°33.968 18.2946 4.586576 34.583292 20.625169
2009-08-03 07:53:53 51°18.395 2°33.942 18.2947 4.5872 34.589889 20.659993
2009-08-03 07:53:59 51°18.398 2°33.911 18.294 4.586369 34.582869 20.625169
2009-08-03 07:54:03 51°18.4 2°33.89 18.2956 4.586369 34.582869 20.625169
2009-08-03 07:54:08 51°18.402 2°33.864 18.2954 4.586576 34.584624 20.625169
2009-08-03 07:54:14 51°18.405 2°33.833 18.2942 4.587096 34.589011 20.625169
2009-08-03 07:54:18 51°18.407 2°33.812 18.2946 4.587096 34.589678 20.659993
2009-08-03 07:54:23 51°18.409 2°33.785 18.2935 4.586992 34.5888 20.659993
2009-08-03 07:54:28 51°18.412 2°33.759 18.2955 4.586888 34.589255 20.659993
2009-08-03 07:54:33 51°18.414 2°33.734 18.2932 4.586888 34.589255 20.659993
2009-08-03 07:54:38 51°18.416 2°33.708 18.2932 4.583669 34.562054 20.659993
2009-08-03 07:54:43 51°18.419 2°33.682 18.2925 4.586888 34.589922 20.659993
2009-08-03 07:54:48 51°18.421 2°33.657 18.2919 4.586888 34.590588 20.659993
2009-08-03 07:54:53 51°18.423 2°33.631 18.291 4.586784 34.589711 20.659993
2009-08-03 07:54:58 51°18.425 2°33.606 18.29 4.586888 34.590588 20.659993
2009-08-03 07:55:03 51°18.428 2°33.58 18.2891 4.586888 34.590588 20.659993
2009-08-03 07:55:08 51°18.43 2°33.554 18.2894 4.586888 34.590588 20.659993
2009-08-03 07:55:13 51°18.432 2°33.529 18.291 4.586784 34.590377 20.659993
2009-08-03 07:55:18 51°18.434 2°33.503 18.2892 4.586784 34.590377 20.659993
2009-08-03 07:55:23 51°18.436 2°33.477 18.2883 4.586784 34.591043 20.694817
2009-08-03 07:55:28 51°18.439 2°33.452 18.2889 4.585123 34.577669 20.694817
2009-08-03 07:55:33 51°18.441 2°33.426 18.2897 4.585123 34.577669 20.694817
2009-08-03 07:55:38 51°18.443 2°33.401 18.2904 4.58668 34.591499 20.694817
2009-08-03 07:55:43 51°18.445 2°33.375 18.2922 4.583877 34.568471 20.694817
2009-08-03 07:55:48 51°18.447 2°33.349 18.2915 4.58668 34.591499 20.694817
2009-08-03 07:55:53 51°18.449 2°33.324 18.2932 4.58585 34.585144 20.694817
2009-08-03 07:55:58 51°18.452 2°33.298 18.2909 4.585538 34.583178 20.694817
2009-08-03 07:56:03 51°18.453 2°33.272 18.2928 4.585538 34.583178 20.694817
2009-08-03 07:56:07 51°18.455 2°33.252 18.2927 4.584292 34.572647 20.694817
2009-08-03 07:56:13 51°18.457 2°33.221 18.2919 4.58668 34.592832 20.694817
2009-08-03 07:56:18 51°18.459 2°33.195 18.2932 4.586784 34.593043 20.694817
2009-08-03 07:56:23 51°18.461 2°33.169 18.2952 4.586784 34.592376 20.694817
2009-08-03 07:56:28 51°18.463 2°33.144 18.2953 4.58585 34.584478 20.694817
2009-08-03 07:56:33 51°18.466 2°33.118 18.2926 4.58585 34.584478 20.694817
2009-08-03 07:56:38 51°18.468 2°33.093 18.2957 4.586992 34.594132 20.694817
2009-08-03 07:56:43 51°18.47 2°33.067 18.2932 4.587096 34.594343 20.694817
2009-08-03 07:56:48 51°18.473 2°33.042 18.2939 4.586992 34.593465 20.729641
2009-08-03 07:56:54 51°18.475 2°33.011 18.2948 4.584811 34.57437 20.729641
2009-08-03 07:56:58 51°18.477 2°32.991 18.2979 4.587303 34.594098 20.694817
2009-08-03 07:57:03 51°18.48 2°32.965 18.2957 4.587303 34.594098 20.694817
2009-08-03 07:57:08 51°18.482 2°32.94 18.2975 4.582527 34.553734 20.729641
2009-08-03 07:57:13 51°18.484 2°32.915 18.2983 4.587615 34.596731 20.729641
2009-08-03 07:57:18 51°18.486 2°32.889 18.2965 4.587615 34.596731 20.729641
2009-08-03 07:57:23 51°18.489 2°32.863 18.2979 4.587719 34.598275 20.729641
2009-08-03 07:57:28 51°18.491 2°32.838 18.2982 4.587719 34.598275 20.729641
2009-08-03 07:57:34 51°18.493 2°32.807 18.2996 4.583981 34.566018 20.764465
2009-08-03 07:57:38 51°18.495 2°32.787 18.3002 4.583046 34.557455 20.729641
2009-08-03 07:57:43 51°18.497 2°32.761 18.301 4.58803 34.598908 20.729641
2009-08-03 07:57:48 51°18.499 2°32.735 18.3014 4.588134 34.599119 20.729641
2009-08-03 07:57:54 51°18.501 2°32.705 18.3015 4.588238 34.599997 20.764465
2009-08-03 07:57:58 51°18.502 2°32.684 18.3025 4.588342 34.600874 20.764465
2009-08-03 07:58:03 51°18.504 2°32.658 18.3048 4.588342 34.600874 20.764465
2009-08-03 07:58:08 51°18.506 2°32.633 18.3065 4.588549 34.601296 20.729641
2009-08-03 07:58:13 51°18.508 2°32.607 18.3056 4.588653 34.602174 20.764465
2009-08-03 07:58:18 51°18.51 2°32.582 18.3078 4.588757 34.601718 20.764465
2009-08-03 07:58:23 51°18.512 2°32.556 18.3083 4.588861 34.601929 20.764465
2009-08-03 07:58:27 51°18.514 2°32.535 18.3084 4.588965 34.60214 20.764465
2009-08-03 07:58:33 51°18.516 2°32.505 18.3079 4.588965 34.60214 20.764465
2009-08-03 07:58:38 51°18.518 2°32.479 18.3104 4.589172 34.603229 20.764465
2009-08-03 07:58:43 51°18.52 2°32.453 18.3111 4.589276 34.603439 20.799289
2009-08-03 07:58:48 51°18.522 2°32.427 18.3156 4.589484 34.603861 20.799289
2009-08-03 07:58:53 51°18.524 2°32.402 18.3129 4.589692 34.60495 20.799289
2009-08-03 07:58:58 51°18.525 2°32.376 18.3148 4.589795 34.605161 20.799289
2009-08-03 07:59:03 51°18.527 2°32.35 18.3158 4.589795 34.605161 20.799289
2009-08-03 07:59:08 51°18.529 2°32.324 18.3142 4.589899 34.605372 20.799289
2009-08-03 07:59:13 51°18.531 2°32.298 18.3135 4.590107 34.60646 20.799289
2009-08-03 07:59:18 51°18.533 2°32.273 18.3154 4.590211 34.606671 20.799289
2009-08-03 07:59:23 51°18.534 2°32.247 18.3143 4.590418 34.606426 20.834113
2009-08-03 07:59:28 51°18.536 2°32.221 18.316 4.590522 34.606637 20.834113
2009-08-03 07:59:33 51°18.538 2°32.195 18.3148 4.590522 34.606637 20.834113
2009-08-03 07:59:38 51°18.539 2°32.169 18.3147 4.59073 34.607725 20.834113
2009-08-03 07:59:43 51°18.541 2°32.144 18.3166 4.590834 34.607936 20.834113
2009-08-03 07:59:48 51°18.543 2°32.118 18.3174 4.590938 34.608813 20.868938
2009-08-03 07:59:54 51°18.546 2°32.087 18.3178 4.591041 34.609691 20.868938
2009-08-03 07:59:58 51°18.548 2°32.067 18.318 4.591041 34.609691 20.868938
2009-08-03 08:00:03 51°18.552 2°32.042 18.3195 4.591041 34.609691 20.868938
2009-08-03 08:00:08 51°18.554 2°32.016 18.3205 4.591145 34.610568 20.868938
2009-08-03 08:00:13 51°18.557 2°31.991 18.3209 4.591249 34.610779 20.868938
2009-08-03 08:00:18 51°18.56 2°31.965 18.3224 4.591353 34.610989 20.903762
2009-08-03 08:00:23 51°18.564 2°31.94 18.3234 4.591457 34.6112 20.903762
2009-08-03 08:00:27 51°18.567 2°31.92 18.3226 4.591561 34.611411 20.903762
2009-08-03 08:00:33 51°18.571 2°31.89 18.3216 4.591561 34.611411 20.903762
2009-08-03 08:00:38 51°18.575 2°31.865 18.3237 4.591664 34.611622 20.903762
2009-08-03 08:00:43 51°18.579 2°31.84 18.3252 4.591768 34.611833 20.903762
2009-08-03 08:00:48 51°18.583 2°31.815 18.3253 4.591872 34.61271 20.903762
2009-08-03 08:00:53 51°18.586 2°31.79 18.3282 4.59208 34.613132 20.938586
2009-08-03 08:00:58 51°18.59 2°31.765 18.3273 4.592184 34.612676 20.938586